createdAt,value
2022-11-05T00:02:08.751Z,0.52
2022-11-05T00:04:35.422Z,0.40
2022-11-05T00:07:12.977Z,0.50
2022-11-05T00:09:39.881Z,0.52
2022-11-05T00:12:12.411Z,0.40
2022-11-05T00:14:39.101Z,0.32
2022-11-05T00:17:05.543Z,0.50
2022-11-05T00:19:32.021Z,0.55
2022-11-05T00:21:58.602Z,0.47
2022-11-05T00:24:25.361Z,0.63
2022-11-05T00:26:51.799Z,0.68
2022-11-05T00:29:18.341Z,0.70
2022-11-05T00:31:45.152Z,0.38
2022-11-05T00:34:11.693Z,0.50
2022-11-05T00:36:38.256Z,0.52
2022-11-05T00:39:05.945Z,0.40
2022-11-05T00:41:32.464Z,0.30
2022-11-05T00:43:59.104Z,0.52
2022-11-05T00:46:25.584Z,0.60
2022-11-05T00:48:52.210Z,0.50
2022-11-05T00:51:18.719Z,0.45
2022-11-05T00:53:45.465Z,0.25
2022-11-05T00:56:12.173Z,0.40
2022-11-05T00:58:38.727Z,0.50
2022-11-05T01:01:06.423Z,0.47
2022-11-05T01:03:36.068Z,0.52
2022-11-05T01:06:08.874Z,0.82
2022-11-05T01:08:36.283Z,0.40
2022-11-05T01:11:09.877Z,0.90
2022-11-05T01:13:37.131Z,0.30
2022-11-05T01:16:09.411Z,0.30
2022-11-05T01:18:38.702Z,0.52
2022-11-05T01:21:14.684Z,0.70
2022-11-05T01:23:41.482Z,0.50
2022-11-05T01:26:08.045Z,0.40
2022-11-05T01:28:34.599Z,0.40
2022-11-05T01:31:01.258Z,0.40
2022-11-05T01:33:27.874Z,0.50
2022-11-05T01:35:54.432Z,0.40
2022-11-05T01:38:21.057Z,0.50
2022-11-05T01:40:47.605Z,0.60
2022-11-05T01:43:20.485Z,0.28
2022-11-05T01:45:52.794Z,0.40
2022-11-05T01:48:34.092Z,0.35
2022-11-05T01:51:11.497Z,0.45
2022-11-05T01:53:48.331Z,0.30
2022-11-05T01:56:26.020Z,0.30
2022-11-05T01:59:03.720Z,0.20
2022-11-05T02:01:30.613Z,0.32
2022-11-05T02:04:02.332Z,0.30
2022-11-05T02:06:32.553Z,0.38
2022-11-05T02:09:07.264Z,0.80
2022-11-05T02:11:33.899Z,0.30
2022-11-05T02:14:03.857Z,0.50
2022-11-05T02:16:55.040Z,0.40
2022-11-05T02:19:58.947Z,0.20
2022-11-05T02:23:04.569Z,0.30
2022-11-05T02:25:58.797Z,0.93
2022-11-05T02:28:44.267Z,0.77
2022-11-05T02:31:26.331Z,0.40
2022-11-05T02:34:05.186Z,0.73
2022-11-05T02:36:44.788Z,0.40
2022-11-05T02:39:20.023Z,0.57
2022-11-05T02:42:12.830Z,0.40
2022-11-05T02:45:04.432Z,0.40
2022-11-05T02:48:20.661Z,0.50
2022-11-05T02:51:11.949Z,0.38
2022-11-05T02:53:48.738Z,0.50
2022-11-05T02:56:24.004Z,0.43
2022-11-05T02:58:50.463Z,0.50
2022-11-05T03:01:17.129Z,0.50
2022-11-05T03:03:47.248Z,0.50
2022-11-05T03:06:40.768Z,0.50
2022-11-05T03:09:21.472Z,0.77
2022-11-05T03:11:58.040Z,0.30
2022-11-05T03:14:54.245Z,0.52
2022-11-05T03:17:20.730Z,0.50
2022-11-05T03:19:55.813Z,0.68
2022-11-05T03:22:29.983Z,0.45
2022-11-05T03:25:02.598Z,0.60
2022-11-05T03:27:37.824Z,0.40
2022-11-05T03:30:10.672Z,0.32
2022-11-05T03:32:42.181Z,0.47
2022-11-05T03:35:21.969Z,0.32
2022-11-05T03:37:52.754Z,0.60
2022-11-05T03:40:22.725Z,0.40
2022-11-05T03:42:54.181Z,0.50
2022-11-05T03:45:27.927Z,0.50
2022-11-05T03:47:58.814Z,0.40
2022-11-05T03:50:41.689Z,0.50
2022-11-05T03:53:22.335Z,0.35
2022-11-05T03:56:11.751Z,0.50
2022-11-05T03:58:43.717Z,0.50
2022-11-05T04:01:10.821Z,0.57
2022-11-05T04:03:37.265Z,0.45
2022-11-05T04:06:09.721Z,0.40
2022-11-05T04:08:36.489Z,0.70
2022-11-05T04:11:03.253Z,0.57
2022-11-05T04:13:29.723Z,0.57
2022-11-05T04:15:56.925Z,0.63
2022-11-05T04:18:23.446Z,0.65
2022-11-05T04:20:49.918Z,0.60
2022-11-05T04:23:16.405Z,0.95
2022-11-05T04:25:43.370Z,0.52
2022-11-05T04:28:09.820Z,0.52
2022-11-05T04:30:36.288Z,0.52
2022-11-05T04:33:10.451Z,0.50
2022-11-05T04:35:42.157Z,0.52
2022-11-05T04:38:14.190Z,0.43
2022-11-05T04:40:41.665Z,0.82
2022-11-05T04:43:14.632Z,0.63
2022-11-05T04:45:42.303Z,0.52
2022-11-05T04:48:08.803Z,0.45
2022-11-05T04:50:35.324Z,0.52
2022-11-05T04:53:02.387Z,0.50
2022-11-05T04:55:29.166Z,0.40
2022-11-05T04:57:55.794Z,0.85
2022-11-05T05:00:23.902Z,0.60
2022-11-05T05:02:50.457Z,0.43
2022-11-05T05:05:17.140Z,0.70
2022-11-05T05:07:43.660Z,0.60
2022-11-05T05:10:11.219Z,0.80
2022-11-05T05:12:37.694Z,0.50
2022-11-05T05:15:05.113Z,0.45
2022-11-05T05:17:31.655Z,0.63
2022-11-05T05:19:58.304Z,0.52
2022-11-05T05:22:24.937Z,0.85
2022-11-05T05:24:52.907Z,0.55
2022-11-05T05:27:20.320Z,0.80
2022-11-05T05:29:46.760Z,1.08
2022-11-05T05:32:13.300Z,0.70
2022-11-05T05:34:39.785Z,0.82
2022-11-05T05:37:07.006Z,0.77
2022-11-05T05:39:33.490Z,0.60
2022-11-05T05:42:00.007Z,0.85
2022-11-05T05:44:26.468Z,0.65
2022-11-05T05:46:54.438Z,0.60
2022-11-05T05:49:21.090Z,0.63
2022-11-05T05:51:50.307Z,0.50
2022-11-05T05:54:16.813Z,0.75
2022-11-05T05:56:46.372Z,0.73
2022-11-05T05:59:12.893Z,0.88
2022-11-05T06:01:39.636Z,0.93
2022-11-05T06:04:06.576Z,1.50
2022-11-05T06:06:33.191Z,0.75
2022-11-05T06:08:59.833Z,1.00
2022-11-05T06:11:26.557Z,0.70
2022-11-05T06:13:53.020Z,1.02
2022-11-05T06:16:19.672Z,0.50
2022-11-05T06:18:46.846Z,0.90
2022-11-05T06:21:16.052Z,0.90
2022-11-05T06:23:44.395Z,0.82
2022-11-05T06:26:16.227Z,0.80
2022-11-05T06:28:43.367Z,0.98
2022-11-05T06:31:11.561Z,1.00
2022-11-05T06:36:06.423Z,0.70
2022-11-05T06:41:04.581Z,0.70
2022-11-05T06:43:35.815Z,1.00
2022-11-05T06:46:02.542Z,0.85
2022-11-05T06:48:29.449Z,0.90
2022-11-05T06:50:56.038Z,1.25
2022-11-05T06:53:22.593Z,1.00
2022-11-05T06:55:49.082Z,1.15
2022-11-05T06:58:15.865Z,1.40
2022-11-05T07:00:42.432Z,0.73
2022-11-05T07:03:11.231Z,1.08
2022-11-05T07:05:42.283Z,0.52
2022-11-05T07:08:08.843Z,1.40
2022-11-05T07:10:35.272Z,0.80
2022-11-05T07:13:07.557Z,1.15
2022-11-05T07:15:34.933Z,1.75
2022-11-05T07:18:01.724Z,0.57
2022-11-05T07:20:33.525Z,1.15
2022-11-05T07:23:06.209Z,1.00
2022-11-05T07:25:33.848Z,0.77
2022-11-05T07:28:00.968Z,0.90
2022-11-05T07:30:27.535Z,0.82
2022-11-05T07:32:54.180Z,1.00
2022-11-05T07:35:20.761Z,1.42
2022-11-05T07:37:52.009Z,1.10
2022-11-05T07:40:19.350Z,1.27
2022-11-05T07:42:48.062Z,1.05
2022-11-05T07:45:14.615Z,1.33
2022-11-05T07:47:52.497Z,1.50
2022-11-05T07:50:20.920Z,1.05
2022-11-05T07:52:47.775Z,1.05
2022-11-05T07:55:14.789Z,1.50
2022-11-05T07:57:42.745Z,1.00
2022-11-05T08:00:15.343Z,1.27
2022-11-05T08:02:42.920Z,1.15
2022-11-05T08:05:10.032Z,1.30
2022-11-05T08:07:36.703Z,1.10
2022-11-05T08:10:03.388Z,0.90
2022-11-05T08:12:30.881Z,1.30
2022-11-05T08:14:57.466Z,1.42
2022-11-05T08:17:24.199Z,1.40
2022-11-05T08:19:50.702Z,1.70
2022-11-05T08:22:17.138Z,1.25
2022-11-05T08:24:43.670Z,1.17
2022-11-05T08:27:10.157Z,1.20
2022-11-05T08:29:36.650Z,1.40
2022-11-05T08:32:03.373Z,1.50
2022-11-05T08:34:29.833Z,1.60
2022-11-05T08:36:56.275Z,1.60
2022-11-05T08:39:22.872Z,1.48
2022-11-05T08:41:49.506Z,1.00
2022-11-05T08:44:16.062Z,1.48
2022-11-05T08:46:42.705Z,1.50
2022-11-05T08:49:09.412Z,1.65
2022-11-05T08:51:35.876Z,1.70
2022-11-05T08:54:02.439Z,1.80
2022-11-05T08:56:28.973Z,1.50
2022-11-05T08:58:55.549Z,1.60
2022-11-05T09:01:22.069Z,2.10
2022-11-05T09:03:52.238Z,1.60
2022-11-05T09:06:18.973Z,1.50
2022-11-05T09:08:45.658Z,1.58
2022-11-05T09:11:12.346Z,1.60
2022-11-05T09:13:38.854Z,1.77
2022-11-05T09:16:06.023Z,1.40
2022-11-05T09:18:33.461Z,1.50
2022-11-05T09:20:59.967Z,1.33
2022-11-05T09:23:26.585Z,1.77
2022-11-05T09:25:53.131Z,1.42
2022-11-05T09:28:21.134Z,1.48
2022-11-05T09:30:50.029Z,1.30
2022-11-05T09:33:22.836Z,1.48
2022-11-05T09:35:49.757Z,1.55
2022-11-05T09:38:16.497Z,1.00
2022-11-05T09:41:27.235Z,2.22
2022-11-05T09:43:57.920Z,1.10
2022-11-05T09:46:27.097Z,0.95
2022-11-05T09:48:58.969Z,0.90
2022-11-05T09:51:25.536Z,1.15
2022-11-05T09:53:52.362Z,1.10
2022-11-05T09:56:26.292Z,1.05
2022-11-05T09:59:15.816Z,1.35
2022-11-05T10:01:43.549Z,1.10
2022-11-05T10:04:16.909Z,1.63
2022-11-05T10:06:57.533Z,1.33
2022-11-05T10:09:33.526Z,1.33
2022-11-05T10:12:11.827Z,1.50
2022-11-05T10:14:49.502Z,1.13
2022-11-05T10:17:21.794Z,0.95
2022-11-05T10:19:54.337Z,1.00
2022-11-05T10:22:21.172Z,0.95
2022-11-05T10:24:49.977Z,1.05
2022-11-05T10:27:23.762Z,0.77
2022-11-05T10:29:50.911Z,1.40
2022-11-05T10:32:28.408Z,0.80
2022-11-05T10:34:59.620Z,0.88
2022-11-05T10:37:26.913Z,1.00
2022-11-05T10:39:54.078Z,1.38
2022-11-05T10:42:23.446Z,1.02
2022-11-05T10:45:09.625Z,0.82
2022-11-05T10:47:45.560Z,0.68
2022-11-05T10:50:20.609Z,0.80
2022-11-05T10:53:01.325Z,0.80
2022-11-05T10:55:29.326Z,0.93
2022-11-05T10:58:07.689Z,0.60
2022-11-05T11:00:34.414Z,0.80
2022-11-05T11:03:03.326Z,0.50
2022-11-05T11:05:30.968Z,0.80
2022-11-05T11:08:01.330Z,0.55
2022-11-05T11:10:30.519Z,0.98
2022-11-05T11:12:57.542Z,0.77
2022-11-05T11:15:30.214Z,0.60
2022-11-05T11:17:56.695Z,0.60
2022-11-05T11:20:28.511Z,0.65
2022-11-05T11:23:11.673Z,0.70
2022-11-05T11:25:41.284Z,0.93
2022-11-05T11:28:18.192Z,0.70
2022-11-05T11:31:10.700Z,0.70
2022-11-05T11:33:39.102Z,0.90
2022-11-05T11:36:06.452Z,1.02
2022-11-05T11:38:35.492Z,0.80
2022-11-05T11:41:32.301Z,0.70
2022-11-05T11:44:04.714Z,0.70
2022-11-05T11:46:33.837Z,0.80
2022-11-05T11:49:01.090Z,0.88
2022-11-05T11:51:36.608Z,1.00
2022-11-05T11:54:04.377Z,1.38
2022-11-05T11:56:43.502Z,1.10
2022-11-05T11:59:53.806Z,1.30
2022-11-05T12:02:17.079Z,0.80
2022-11-05T12:05:23.078Z,1.20
2022-11-05T12:07:55.510Z,1.00
2022-11-05T12:10:22.077Z,1.10
2022-11-05T12:13:20.445Z,1.60
2022-11-05T12:15:53.449Z,1.15
2022-11-05T12:18:38.817Z,1.40
2022-11-05T12:21:07.095Z,1.70
2022-11-05T12:23:51.272Z,1.40
2022-11-05T12:26:45.780Z,1.20
2022-11-05T12:29:35.690Z,1.17
2022-11-05T12:32:39.007Z,0.90
2022-11-05T12:35:20.420Z,1.50
2022-11-05T12:37:55.784Z,1.00
2022-11-05T12:40:46.486Z,1.35
2022-11-05T12:43:50.089Z,1.48
2022-11-05T12:46:35.126Z,3.17
2022-11-05T12:49:01.544Z,1.98
2022-11-05T12:51:58.305Z,3.22
2022-11-05T12:54:55.494Z,3.08
2022-11-05T12:57:23.365Z,4.63
2022-11-05T13:00:06.090Z,3.03
2022-11-05T13:03:05.060Z,19.77
2022-11-05T13:05:37.803Z,5.43
2022-11-05T13:08:28.602Z,3.63
2022-11-05T13:10:57.744Z,3.50
2022-11-05T13:13:46.461Z,2.42
2022-11-05T13:16:37.214Z,2.83
2022-11-05T13:19:22.383Z,3.53
2022-11-05T13:21:55.917Z,3.15
2022-11-05T13:24:34.622Z,3.15
2022-11-05T13:27:36.096Z,2.97
2022-11-05T13:30:05.254Z,3.20
2022-11-05T13:32:36.474Z,2.30
2022-11-05T13:35:05.790Z,2.10
2022-11-05T13:37:40.382Z,1.88
2022-11-05T13:40:11.185Z,1.85
2022-11-05T13:43:02.015Z,1.65
2022-11-05T13:45:46.944Z,2.00
2022-11-05T13:49:00.933Z,1.38
2022-11-05T13:51:42.704Z,2.33
2022-11-05T13:54:27.775Z,1.67
2022-11-05T13:57:22.364Z,1.50
2022-11-05T13:59:57.928Z,1.23
2022-11-05T14:02:29.269Z,1.42
2022-11-05T14:05:01.363Z,1.13
2022-11-05T14:07:32.339Z,1.10
2022-11-05T14:10:05.325Z,1.15
2022-11-05T14:12:39.869Z,1.20
2022-11-05T14:15:15.567Z,1.13
2022-11-05T14:18:04.973Z,0.95
2022-11-05T14:20:31.408Z,0.93
2022-11-05T14:23:22.586Z,0.80
2022-11-05T14:25:52.431Z,0.95
2022-11-05T14:28:39.393Z,1.00
2022-11-05T14:31:17.958Z,0.88
2022-11-05T14:34:18.993Z,1.30
2022-11-05T14:37:21.586Z,0.93
2022-11-05T14:39:48.719Z,1.67
2022-11-05T14:42:17.486Z,4.63
2022-11-05T14:45:20.002Z,2.25
2022-11-05T14:47:56.725Z,1.10
2022-11-05T14:50:42.563Z,1.33
2022-11-05T14:53:39.898Z,1.33
2022-11-05T14:56:17.952Z,1.50
2022-11-05T15:01:14.559Z,1.30
2022-11-05T15:03:45.976Z,1.27
2022-11-05T15:06:35.149Z,1.92
2022-11-05T15:09:22.939Z,1.55
2022-11-05T15:12:18.070Z,1.90
2022-11-05T15:14:58.572Z,1.45
2022-11-05T15:17:28.916Z,1.10
2022-11-05T15:20:13.656Z,1.02
2022-11-05T15:22:47.258Z,0.90
2022-11-05T15:25:17.484Z,0.98
2022-11-05T15:28:01.352Z,0.70
2022-11-05T15:30:27.940Z,0.70
2022-11-05T15:32:54.634Z,0.50
2022-11-05T15:35:22.937Z,0.90
2022-11-05T15:37:55.921Z,0.55
2022-11-05T15:40:28.918Z,0.60
2022-11-05T15:43:15.749Z,0.55
2022-11-05T15:45:42.394Z,0.90
2022-11-05T15:48:14.225Z,1.08
2022-11-05T15:50:41.287Z,1.05
2022-11-05T15:53:44.049Z,0.82
2022-11-05T15:56:13.209Z,1.40
2022-11-05T15:58:52.540Z,1.10
2022-11-05T16:01:28.235Z,1.38
2022-11-05T16:03:58.100Z,1.70
2022-11-05T16:06:34.954Z,1.55
2022-11-05T16:09:01.953Z,1.77
2022-11-05T16:11:28.426Z,1.88
2022-11-05T16:14:14.257Z,1.90
2022-11-05T16:16:40.909Z,1.80
2022-11-05T16:19:40.532Z,1.48
2022-11-05T16:22:08.505Z,1.60
2022-11-05T16:24:35.086Z,2.00
2022-11-05T16:27:03.419Z,1.50
2022-11-05T16:29:33.488Z,1.95
2022-11-05T16:32:02.709Z,1.20
2022-11-05T16:34:35.018Z,1.70
2022-11-05T16:37:01.625Z,1.52
2022-11-05T16:39:28.123Z,1.38
2022-11-05T16:41:54.800Z,1.55
2022-11-05T16:44:21.298Z,1.67
2022-11-05T16:46:49.456Z,1.55
2022-11-05T16:49:16.785Z,2.20
2022-11-05T16:51:44.038Z,1.43
2022-11-05T16:54:10.816Z,1.60
2022-11-05T16:56:38.824Z,1.63
2022-11-05T16:59:05.273Z,1.50
2022-11-05T17:01:32.620Z,1.65
2022-11-05T17:03:59.343Z,1.90
2022-11-05T17:06:25.943Z,1.70
2022-11-05T17:08:52.381Z,1.73
2022-11-05T17:11:20.982Z,1.85
2022-11-05T17:13:48.104Z,1.20
2022-11-05T17:16:16.521Z,1.45
2022-11-05T17:18:43.921Z,1.65
2022-11-05T17:21:11.455Z,1.63
2022-11-05T17:23:38.308Z,1.60
2022-11-05T17:26:10.764Z,2.30
2022-11-05T17:28:38.701Z,1.98
2022-11-05T17:31:08.585Z,2.30
2022-11-05T17:33:35.237Z,2.53
2022-11-05T17:36:06.648Z,3.03
2022-11-05T17:38:33.365Z,2.40
2022-11-05T17:40:59.980Z,2.60
2022-11-05T17:43:26.574Z,2.05
2022-11-05T17:45:53.333Z,1.83
2022-11-05T17:48:20.722Z,1.75
2022-11-05T17:50:49.299Z,2.70
2022-11-05T17:53:18.327Z,2.20
2022-11-05T17:55:45.954Z,1.80
2022-11-05T17:58:13.007Z,1.80
2022-11-05T18:00:40.120Z,2.17
2022-11-05T18:03:06.824Z,2.58
2022-11-05T18:05:34.493Z,2.42
2022-11-05T18:10:27.820Z,2.67
2022-11-05T18:12:54.361Z,2.60
2022-11-05T18:15:21.235Z,3.22
2022-11-05T18:17:47.883Z,2.42
2022-11-05T18:20:19.209Z,2.95
2022-11-05T18:22:48.551Z,2.72
2022-11-05T18:25:15.022Z,2.70
2022-11-05T18:27:41.696Z,2.92
2022-11-05T18:30:09.576Z,2.47
2022-11-05T18:32:36.404Z,3.13
2022-11-05T18:35:03.024Z,3.35
2022-11-05T18:37:29.607Z,3.58
2022-11-05T18:39:56.235Z,3.13
2022-11-05T18:42:23.049Z,4.13
2022-11-05T18:44:49.522Z,3.38
2022-11-05T18:47:16.259Z,5.50
2022-11-05T18:49:43.074Z,5.68
2022-11-05T18:52:09.791Z,4.47
2022-11-05T18:54:36.323Z,4.72
2022-11-05T18:57:03.142Z,5.13
2022-11-05T18:59:37.720Z,4.40
2022-11-05T19:02:06.344Z,3.97
2022-11-05T19:04:35.501Z,3.17
2022-11-05T19:07:05.080Z,4.45
2022-11-05T19:09:37.251Z,4.18
2022-11-05T19:12:05.420Z,3.90
2022-11-05T19:16:59.332Z,4.07
2022-11-05T19:19:26.730Z,5.10
2022-11-05T19:21:53.292Z,3.83
2022-11-05T19:24:19.887Z,4.18
2022-11-05T19:26:46.689Z,4.45
2022-11-05T19:29:13.523Z,4.43
2022-11-05T19:31:39.952Z,4.60
2022-11-05T19:34:06.521Z,5.22
2022-11-05T19:36:33.773Z,5.10
2022-11-05T19:39:12.153Z,4.97
2022-11-05T19:41:38.710Z,4.05
2022-11-05T19:44:05.589Z,4.53
2022-11-05T19:46:32.865Z,4.00
2022-11-05T19:49:00.680Z,4.50
2022-11-05T19:51:29.753Z,3.72
2022-11-05T19:53:56.526Z,4.07
2022-11-05T19:56:28.147Z,4.47
2022-11-05T19:58:54.729Z,4.32
2022-11-05T20:01:23.009Z,4.00
2022-11-05T20:03:50.469Z,3.50
2022-11-05T20:06:19.592Z,4.53
2022-11-05T20:09:20.047Z,4.13
2022-11-05T20:11:35.217Z,3.60
2022-11-05T20:14:01.717Z,3.70
2022-11-05T20:16:30.721Z,4.60
2022-11-05T20:18:57.530Z,3.65
2022-11-05T20:21:24.356Z,4.05
2022-11-05T20:23:50.789Z,4.13
2022-11-05T20:26:17.333Z,3.60
2022-11-05T20:28:44.270Z,4.10
2022-11-05T20:31:13.317Z,3.47
2022-11-05T20:33:40.536Z,3.40
2022-11-05T20:36:10.488Z,3.47
2022-11-05T20:38:36.952Z,3.33
2022-11-05T20:41:11.956Z,4.30
2022-11-05T20:43:39.792Z,4.03
2022-11-05T20:46:07.368Z,2.92
2022-11-05T20:48:35.252Z,3.70
2022-11-05T20:51:12.635Z,3.65
2022-11-05T20:53:39.632Z,3.67
2022-11-05T20:56:08.066Z,3.78
2022-11-05T20:58:37.199Z,3.33
2022-11-05T21:01:05.192Z,4.28
2022-11-05T21:05:58.527Z,3.80
2022-11-05T21:08:28.462Z,4.25
2022-11-05T21:10:55.952Z,3.47
2022-11-05T21:13:22.914Z,3.17
2022-11-05T21:15:51.990Z,3.70
2022-11-05T21:18:20.821Z,4.82
2022-11-05T21:20:47.810Z,4.55
2022-11-05T21:23:15.029Z,3.33
2022-11-05T21:25:42.991Z,3.53
2022-11-05T21:28:11.253Z,3.42
2022-11-05T21:30:40.464Z,3.88
2022-11-05T21:33:08.019Z,3.20
2022-11-05T21:35:38.872Z,3.15
2022-11-05T21:38:05.333Z,3.47
2022-11-05T21:40:31.938Z,4.30
2022-11-05T21:42:58.454Z,4.00
2022-11-05T21:45:24.933Z,2.90
2022-11-05T21:47:51.434Z,3.60
2022-11-05T21:50:21.760Z,3.15
2022-11-05T21:52:48.566Z,3.30
2022-11-05T21:55:15.401Z,3.72
2022-11-05T21:57:42.328Z,3.72
2022-11-05T22:00:11.587Z,4.65
2022-11-05T22:02:38.399Z,3.83
2022-11-05T22:05:06.174Z,3.50
2022-11-05T22:07:38.393Z,3.85
2022-11-05T22:10:14.690Z,3.85
2022-11-05T22:12:42.934Z,3.28
2022-11-05T22:15:09.947Z,4.25
2022-11-05T22:17:36.508Z,3.85
2022-11-05T22:20:04.425Z,4.65
2022-11-05T22:22:31.036Z,3.90
2022-11-05T22:24:57.477Z,3.55
2022-11-05T22:27:24.086Z,4.88
2022-11-05T22:29:50.689Z,3.00
2022-11-05T22:32:17.857Z,4.15
2022-11-05T22:34:44.426Z,4.17
2022-11-05T22:37:12.884Z,4.82
2022-11-05T22:39:39.483Z,5.25
2022-11-05T22:42:08.733Z,4.82
2022-11-05T22:44:36.141Z,4.70
2022-11-05T22:47:02.716Z,4.60
2022-11-05T22:49:29.269Z,4.25
2022-11-05T22:51:55.729Z,3.92
2022-11-05T22:54:22.258Z,4.57
2022-11-05T22:56:48.896Z,4.68
2022-11-05T22:59:15.694Z,4.80
2022-11-05T23:01:44.390Z,3.88
2022-11-05T23:04:11.783Z,4.15
2022-11-05T23:06:38.967Z,4.93
2022-11-05T23:09:12.153Z,4.43
2022-11-05T23:11:40.437Z,4.13
2022-11-05T23:14:09.726Z,5.15
2022-11-05T23:16:37.153Z,4.35
2022-11-05T23:19:03.624Z,4.47
2022-11-05T23:21:30.083Z,4.75
2022-11-05T23:23:56.595Z,4.55
2022-11-05T23:26:23.091Z,3.97
2022-11-05T23:28:49.574Z,5.07
2022-11-05T23:31:16.286Z,4.53
2022-11-05T23:33:42.853Z,4.10
2022-11-05T23:36:12.758Z,4.18
2022-11-05T23:38:39.480Z,4.25
2022-11-05T23:41:06.166Z,3.42
2022-11-05T23:43:32.729Z,3.53
2022-11-05T23:45:59.518Z,3.25
2022-11-05T23:48:37.498Z,4.35
2022-11-05T23:53:40.305Z,3.83
2022-11-05T23:56:11.489Z,3.67
2022-11-05T23:58:39.665Z,4.03
